Share

Fukuoka Airport, Japan

Fukuoka (RJFF) Elev 39 ft | 33.58 °N, 130.45 °E | Change Station

Current weather conditions updated 28 minutes ago

Partly Cloudy
Partly Cloudy
66 °F
Feels Like 66 °F
N
10
Wind Variable Wind from NW
Sunrise 5:41 AM
Sunset 6:53 PM
Moon Waning Gibbous

Tomorrow is forecast to be nearly the same temperature as today.

Pressure 29.86 in
Visibility 6.2 miles
Clouds Few 3500 ft
Dew Point 54 °F
Humidity 64%
Rainfall 0.00 in
Snow Depth Not available.
UV 2 out of 16
Pollen Not available.
Air Quality Not available.
Flu Activity Not available.
METAR RJFF 210800Z 31009KT 9999 FEW035 BKN/// 19/12 Q1011 RMK 1CU035 A2986

More Conditions Fewer Conditions

Pressure 29.86 in
Visibility 6.2 miles
Clouds Few 3500 ft
Dew Point 54 °F
Humidity 64%
Rainfall 0.00 in
Snow Depth Not available.
UV 2 out of 16
Pollen Not available.
Air Quality Not available.
Flu Activity Not available.
METAR RJFF 210800Z 31009KT 9999 FEW035 BKN/// 19/12 Q1011 RMK 1CU035 A2986

More Conditions Fewer Conditions

10-Day Weather Forecast

Almanac

Astronomy

Apr. 21, 2014 Rise Set
Actual Time 5:41 AM JST 6:53 PM JST
Civil Twilight 5:15 AM JST 7:19 PM JST
Nautical Twilight 4:44 AM JST 7:50 PM JST
Astronomical Twilight 4:12 AM JST 8:22 PM JST
Moon No Moon Rise 10:32 AM JST
Length of Visible Light 14h 03m
Length of Day
13h 11m
Tomorrow will be 1m 54s longer.
Waning Gibbous, 61% of the Moon is Illuminated
Today
Waning Gibbous
Apr 22
Last Quarter
Apr 29
New
May 6
First Quarter
May 14
Full

Yesterday's Extremes

Country Highs Country Lows

Community

  • Snowy Robin
    Snowy Robin
  • Sun Pillar and Geese
    Sun Pillar and Geese
  • Showers on the Way
    Showers on the Way
  • Easter Morning Fog
    Easter Morning Fog
  • Easter Dance
    Easter Dance

WunderPhotos

Upload Photos

1,703,572 photos uploaded!

WunderBlogs® & News

Nearby

Snow Depth

Not available.

Coastal Water Temperatures

Place Temperature
No Stations Reporting

Earthquake Activity

City Distance Mag. Time & Date
No recent earthquake activity has been reported nearby.
Minimum magnitude displayed is 2.5.

Nearby Weather Stations

Station Location Temp. Dew Point Humidity Wind Precip. Elev Updated Type
Near Fukuoka Oohori-park, Fukuoka 63.7 °F 6 °F 10% NW  at  8.3 mph 0.00 in / hr 45 ft 5:28 PM JST Rapid Fire
SAWARA 64.2 °F 57 °F 78% North  at  8.1 mph 0.00 in / hr -16 ft 5:28 PM JST Rapid Fire
Akama Station(JR KYUSHU RAILWAY), Munakata 64.4 °F 53 °F 67% NNE  at  8.1 mph 0.00 in / hr 33 ft 5:28 PM JST Rapid Fire

Show More Stations Show Fewer Stations

What do you think?

We're not finished. Please let us know what you like, what you don't like, and what you are still missing.